sensor_id;sensor_type;location;lat;lon;timestamp;P1;durP1;ratioP1;P2;durP2;ratioP2
80411;SDS011;69749;42.684;23.360;2023-04-30T00:02:06;15.07;;;9.05;;
80411;SDS011;69749;42.684;23.360;2023-04-30T00:04:32;14.43;;;9.07;;
80411;SDS011;69749;42.684;23.360;2023-04-30T00:06:57;15.13;;;8.38;;
80411;SDS011;69749;42.684;23.360;2023-04-30T00:09:23;15.63;;;8.48;;
80411;SDS011;69749;42.684;23.360;2023-04-30T00:11:48;11.48;;;7.47;;
80411;SDS011;69749;42.684;23.360;2023-04-30T00:14:14;10.68;;;7.30;;
80411;SDS011;69749;42.684;23.360;2023-04-30T00:16:39;11.13;;;7.15;;
80411;SDS011;69749;42.684;23.360;2023-04-30T00:19:05;10.25;;;6.63;;
80411;SDS011;69749;42.684;23.360;2023-04-30T00:21:31;10.15;;;6.45;;
80411;SDS011;69749;42.684;23.360;2023-04-30T00:23:57;11.02;;;7.63;;
80411;SDS011;69749;42.684;23.360;2023-04-30T00:26:24;12.55;;;7.25;;
80411;SDS011;69749;42.684;23.360;2023-04-30T00:28:49;11.18;;;7.35;;
80411;SDS011;69749;42.684;23.360;2023-04-30T00:31:15;18.98;;;7.05;;
80411;SDS011;69749;42.684;23.360;2023-04-30T00:33:40;13.68;;;7.50;;
80411;SDS011;69749;42.684;23.360;2023-04-30T00:36:05;12.48;;;7.72;;
80411;SDS011;69749;42.684;23.360;2023-04-30T00:38:31;11.45;;;7.78;;
80411;SDS011;69749;42.684;23.360;2023-04-30T00:40:56;11.88;;;7.88;;
80411;SDS011;69749;42.684;23.360;2023-04-30T00:43:22;10.57;;;7.03;;
80411;SDS011;69749;42.684;23.360;2023-04-30T00:45:48;10.10;;;6.70;;
80411;SDS011;69749;42.684;23.360;2023-04-30T00:48:13;10.07;;;6.68;;
80411;SDS011;69749;42.684;23.360;2023-04-30T00:50:40;10.00;;;6.85;;
80411;SDS011;69749;42.684;23.360;2023-04-30T00:53:07;13.45;;;6.97;;
80411;SDS011;69749;42.684;23.360;2023-04-30T00:55:32;13.25;;;7.53;;
80411;SDS011;69749;42.684;23.360;2023-04-30T00:57:58;11.35;;;6.43;;
80411;SDS011;69749;42.684;23.360;2023-04-30T01:00:24;13.05;;;6.85;;
80411;SDS011;69749;42.684;23.360;2023-04-30T01:02:51;13.40;;;7.97;;
80411;SDS011;69749;42.684;23.360;2023-04-30T01:05:17;11.98;;;7.18;;
80411;SDS011;69749;42.684;23.360;2023-04-30T01:07:42;9.95;;;6.75;;
80411;SDS011;69749;42.684;23.360;2023-04-30T01:10:11;8.68;;;7.05;;
80411;SDS011;69749;42.684;23.360;2023-04-30T01:18:20;10.93;;;7.53;;
80411;SDS011;69749;42.684;23.360;2023-04-30T01:20:52;12.25;;;7.68;;
80411;SDS011;69749;42.684;23.360;2023-04-30T01:26:27;13.63;;;8.10;;
80411;SDS011;69749;42.684;23.360;2023-04-30T01:29:04;11.25;;;7.60;;
80411;SDS011;69749;42.684;23.360;2023-04-30T01:31:30;14.85;;;8.30;;
80411;SDS011;69749;42.684;23.360;2023-04-30T01:33:56;12.40;;;8.13;;
80411;SDS011;69749;42.684;23.360;2023-04-30T01:41:47;13.52;;;8.70;;
80411;SDS011;69749;42.684;23.360;2023-04-30T01:44:48;11.57;;;8.30;;
80411;SDS011;69749;42.684;23.360;2023-04-30T01:50:32;12.02;;;8.20;;
80411;SDS011;69749;42.684;23.360;2023-04-30T01:53:12;13.45;;;8.27;;
80411;SDS011;69749;42.684;23.360;2023-04-30T01:55:47;10.18;;;7.35;;
80411;SDS011;69749;42.684;23.360;2023-04-30T01:58:16;13.30;;;8.93;;
80411;SDS011;69749;42.684;23.360;2023-04-30T02:00:42;12.85;;;8.15;;
80411;SDS011;69749;42.684;23.360;2023-04-30T02:03:07;14.85;;;8.20;;
80411;SDS011;69749;42.684;23.360;2023-04-30T02:05:32;11.98;;;8.45;;
80411;SDS011;69749;42.684;23.360;2023-04-30T02:07:58;14.05;;;7.80;;
80411;SDS011;69749;42.684;23.360;2023-04-30T02:10:25;15.23;;;8.93;;
80411;SDS011;69749;42.684;23.360;2023-04-30T02:12:51;10.45;;;7.80;;
80411;SDS011;69749;42.684;23.360;2023-04-30T02:15:17;13.70;;;8.65;;
80411;SDS011;69749;42.684;23.360;2023-04-30T02:17:43;13.80;;;8.40;;
80411;SDS011;69749;42.684;23.360;2023-04-30T02:20:09;12.57;;;8.35;;
80411;SDS011;69749;42.684;23.360;2023-04-30T02:22:35;13.40;;;8.20;;
80411;SDS011;69749;42.684;23.360;2023-04-30T02:25:01;13.73;;;8.32;;
80411;SDS011;69749;42.684;23.360;2023-04-30T02:27:29;14.10;;;9.20;;
80411;SDS011;69749;42.684;23.360;2023-04-30T02:29:55;12.18;;;8.23;;
80411;SDS011;69749;42.684;23.360;2023-04-30T02:32:21;13.57;;;8.73;;
80411;SDS011;69749;42.684;23.360;2023-04-30T02:34:47;13.98;;;9.30;;
80411;SDS011;69749;42.684;23.360;2023-04-30T02:37:12;12.07;;;8.20;;
80411;SDS011;69749;42.684;23.360;2023-04-30T02:39:38;12.75;;;8.60;;
80411;SDS011;69749;42.684;23.360;2023-04-30T02:42:03;11.52;;;8.00;;
80411;SDS011;69749;42.684;23.360;2023-04-30T02:44:31;13.52;;;7.65;;
80411;SDS011;69749;42.684;23.360;2023-04-30T02:46:56;11.43;;;7.88;;
80411;SDS011;69749;42.684;23.360;2023-04-30T02:49:21;14.88;;;8.52;;
80411;SDS011;69749;42.684;23.360;2023-04-30T02:51:47;13.45;;;8.63;;
80411;SDS011;69749;42.684;23.360;2023-04-30T02:54:12;15.43;;;9.02;;
80411;SDS011;69749;42.684;23.360;2023-04-30T02:56:38;14.60;;;8.32;;
80411;SDS011;69749;42.684;23.360;2023-04-30T02:59:03;13.50;;;8.35;;
80411;SDS011;69749;42.684;23.360;2023-04-30T03:01:29;15.48;;;8.73;;
80411;SDS011;69749;42.684;23.360;2023-04-30T03:03:54;15.20;;;9.10;;
80411;SDS011;69749;42.684;23.360;2023-04-30T03:06:20;13.95;;;8.70;;
80411;SDS011;69749;42.684;23.360;2023-04-30T03:08:45;13.32;;;7.90;;
80411;SDS011;69749;42.684;23.360;2023-04-30T03:11:11;14.43;;;8.43;;
80411;SDS011;69749;42.684;23.360;2023-04-30T03:13:36;13.18;;;8.60;;
80411;SDS011;69749;42.684;23.360;2023-04-30T03:16:02;11.75;;;8.60;;
80411;SDS011;69749;42.684;23.360;2023-04-30T03:18:30;16.60;;;10.20;;
80411;SDS011;69749;42.684;23.360;2023-04-30T03:20:56;14.95;;;8.23;;
80411;SDS011;69749;42.684;23.360;2023-04-30T03:23:22;13.27;;;8.68;;
80411;SDS011;69749;42.684;23.360;2023-04-30T03:25:48;12.95;;;7.85;;
80411;SDS011;69749;42.684;23.360;2023-04-30T03:28:14;14.73;;;8.10;;
80411;SDS011;69749;42.684;23.360;2023-04-30T03:30:40;9.52;;;7.15;;
80411;SDS011;69749;42.684;23.360;2023-04-30T03:33:06;15.95;;;8.73;;
80411;SDS011;69749;42.684;23.360;2023-04-30T03:35:31;12.90;;;7.88;;
80411;SDS011;69749;42.684;23.360;2023-04-30T03:37:58;14.60;;;8.50;;
80411;SDS011;69749;42.684;23.360;2023-04-30T03:40:24;11.23;;;8.15;;
80411;SDS011;69749;42.684;23.360;2023-04-30T03:42:49;13.20;;;8.55;;
80411;SDS011;69749;42.684;23.360;2023-04-30T03:45:14;15.65;;;8.75;;
80411;SDS011;69749;42.684;23.360;2023-04-30T03:47:41;17.80;;;8.75;;
80411;SDS011;69749;42.684;23.360;2023-04-30T03:50:07;14.60;;;8.02;;
80411;SDS011;69749;42.684;23.360;2023-04-30T03:52:33;12.77;;;7.90;;
80411;SDS011;69749;42.684;23.360;2023-04-30T03:54:58;14.43;;;7.93;;
80411;SDS011;69749;42.684;23.360;2023-04-30T03:57:23;12.27;;;7.75;;
80411;SDS011;69749;42.684;23.360;2023-04-30T03:59:49;13.00;;;8.40;;
80411;SDS011;69749;42.684;23.360;2023-04-30T04:02:15;16.40;;;8.48;;
80411;SDS011;69749;42.684;23.360;2023-04-30T04:04:40;13.18;;;8.75;;
80411;SDS011;69749;42.684;23.360;2023-04-30T04:07:06;17.88;;;9.77;;
80411;SDS011;69749;42.684;23.360;2023-04-30T04:09:33;12.85;;;8.23;;
80411;SDS011;69749;42.684;23.360;2023-04-30T04:11:59;15.35;;;9.10;;
80411;SDS011;69749;42.684;23.360;2023-04-30T04:14:25;13.82;;;8.60;;
80411;SDS011;69749;42.684;23.360;2023-04-30T04:16:51;14.50;;;9.57;;
80411;SDS011;69749;42.684;23.360;2023-04-30T04:19:16;13.45;;;8.77;;
80411;SDS011;69749;42.684;23.360;2023-04-30T04:21:42;16.63;;;9.40;;
80411;SDS011;69749;42.684;23.360;2023-04-30T04:24:07;12.70;;;9.02;;
80411;SDS011;69749;42.684;23.360;2023-04-30T04:26:36;10.63;;;6.88;;
80411;SDS011;69749;42.684;23.360;2023-04-30T04:29:02;13.02;;;9.15;;
80411;SDS011;69749;42.684;23.360;2023-04-30T04:31:28;14.82;;;9.43;;
80411;SDS011;69749;42.684;23.360;2023-04-30T04:33:55;17.38;;;12.25;;
80411;SDS011;69749;42.684;23.360;2023-04-30T04:36:24;21.10;;;13.98;;
80411;SDS011;69749;42.684;23.360;2023-04-30T04:38:53;17.73;;;12.10;;
80411;SDS011;69749;42.684;23.360;2023-04-30T04:41:18;18.33;;;11.73;;
80411;SDS011;69749;42.684;23.360;2023-04-30T04:43:44;15.20;;;10.30;;
80411;SDS011;69749;42.684;23.360;2023-04-30T04:46:10;10.98;;;8.18;;
80411;SDS011;69749;42.684;23.360;2023-04-30T04:48:35;10.57;;;7.53;;
80411;SDS011;69749;42.684;23.360;2023-04-30T04:51:00;13.05;;;7.28;;
80411;SDS011;69749;42.684;23.360;2023-04-30T04:53:26;8.27;;;7.38;;
80411;SDS011;69749;42.684;23.360;2023-04-30T04:55:51;13.55;;;7.13;;
80411;SDS011;69749;42.684;23.360;2023-04-30T04:58:16;12.30;;;7.00;;
80411;SDS011;69749;42.684;23.360;2023-04-30T05:00:42;13.65;;;7.25;;
80411;SDS011;69749;42.684;23.360;2023-04-30T05:03:08;12.73;;;8.30;;
80411;SDS011;69749;42.684;23.360;2023-04-30T05:05:34;14.18;;;7.75;;
80411;SDS011;69749;42.684;23.360;2023-04-30T05:07:59;12.40;;;7.93;;
80411;SDS011;69749;42.684;23.360;2023-04-30T05:10:25;11.20;;;7.28;;
80411;SDS011;69749;42.684;23.360;2023-04-30T05:12:50;12.18;;;7.50;;
80411;SDS011;69749;42.684;23.360;2023-04-30T05:15:15;13.43;;;7.68;;
80411;SDS011;69749;42.684;23.360;2023-04-30T05:17:41;15.25;;;9.50;;
80411;SDS011;69749;42.684;23.360;2023-04-30T05:20:06;18.10;;;11.00;;
80411;SDS011;69749;42.684;23.360;2023-04-30T05:22:32;18.85;;;11.45;;
80411;SDS011;69749;42.684;23.360;2023-04-30T05:24:58;18.35;;;11.55;;
80411;SDS011;69749;42.684;23.360;2023-04-30T05:27:23;18.00;;;10.57;;
80411;SDS011;69749;42.684;23.360;2023-04-30T05:29:49;17.98;;;10.82;;
80411;SDS011;69749;42.684;23.360;2023-04-30T05:32:14;16.17;;;10.43;;
80411;SDS011;69749;42.684;23.360;2023-04-30T05:34:42;16.42;;;10.02;;
80411;SDS011;69749;42.684;23.360;2023-04-30T05:37:08;18.75;;;10.23;;
80411;SDS011;69749;42.684;23.360;2023-04-30T05:39:33;17.55;;;10.77;;
80411;SDS011;69749;42.684;23.360;2023-04-30T05:41:59;18.02;;;11.48;;
80411;SDS011;69749;42.684;23.360;2023-04-30T05:44:26;16.75;;;10.63;;
80411;SDS011;69749;42.684;23.360;2023-04-30T05:46:54;16.77;;;10.32;;
80411;SDS011;69749;42.684;23.360;2023-04-30T05:49:19;14.75;;;9.30;;
80411;SDS011;69749;42.684;23.360;2023-04-30T05:51:45;18.73;;;11.02;;
80411;SDS011;69749;42.684;23.360;2023-04-30T05:54:10;15.77;;;10.45;;
80411;SDS011;69749;42.684;23.360;2023-04-30T05:56:35;17.73;;;10.20;;
80411;SDS011;69749;42.684;23.360;2023-04-30T05:59:01;17.65;;;11.55;;
80411;SDS011;69749;42.684;23.360;2023-04-30T06:01:26;15.82;;;9.88;;
80411;SDS011;69749;42.684;23.360;2023-04-30T06:03:53;17.05;;;11.18;;
80411;SDS011;69749;42.684;23.360;2023-04-30T06:06:18;16.65;;;9.88;;
80411;SDS011;69749;42.684;23.360;2023-04-30T06:08:44;15.88;;;10.77;;
80411;SDS011;69749;42.684;23.360;2023-04-30T06:11:10;19.80;;;10.80;;
80411;SDS011;69749;42.684;23.360;2023-04-30T06:13:36;16.08;;;10.82;;
80411;SDS011;69749;42.684;23.360;2023-04-30T06:16:02;18.15;;;10.68;;
80411;SDS011;69749;42.684;23.360;2023-04-30T06:18:29;13.70;;;10.50;;
80411;SDS011;69749;42.684;23.360;2023-04-30T06:20:54;18.08;;;10.77;;
80411;SDS011;69749;42.684;23.360;2023-04-30T06:23:20;13.50;;;9.60;;
80411;SDS011;69749;42.684;23.360;2023-04-30T06:25:45;18.25;;;11.23;;
80411;SDS011;69749;42.684;23.360;2023-04-30T06:28:10;17.55;;;10.68;;
80411;SDS011;69749;42.684;23.360;2023-04-30T06:30:36;17.35;;;11.60;;
80411;SDS011;69749;42.684;23.360;2023-04-30T06:33:01;18.08;;;11.68;;
80411;SDS011;69749;42.684;23.360;2023-04-30T06:35:27;15.07;;;11.02;;
80411;SDS011;69749;42.684;23.360;2023-04-30T06:37:52;15.98;;;9.88;;
80411;SDS011;69749;42.684;23.360;2023-04-30T06:40:18;21.38;;;10.73;;
80411;SDS011;69749;42.684;23.360;2023-04-30T06:42:44;18.63;;;10.77;;
80411;SDS011;69749;42.684;23.360;2023-04-30T06:45:10;17.55;;;10.43;;
80411;SDS011;69749;42.684;23.360;2023-04-30T06:47:36;19.08;;;10.57;;
80411;SDS011;69749;42.684;23.360;2023-04-30T06:50:02;16.42;;;11.00;;
80411;SDS011;69749;42.684;23.360;2023-04-30T06:52:28;15.82;;;10.07;;
80411;SDS011;69749;42.684;23.360;2023-04-30T06:54:55;14.27;;;9.95;;
80411;SDS011;69749;42.684;23.360;2023-04-30T06:57:20;21.67;;;11.27;;
80411;SDS011;69749;42.684;23.360;2023-04-30T06:59:46;17.02;;;11.38;;
80411;SDS011;69749;42.684;23.360;2023-04-30T07:02:11;20.13;;;12.95;;
80411;SDS011;69749;42.684;23.360;2023-04-30T07:04:37;19.20;;;12.32;;
80411;SDS011;69749;42.684;23.360;2023-04-30T07:07:02;17.00;;;12.27;;
80411;SDS011;69749;42.684;23.360;2023-04-30T07:09:30;19.48;;;11.57;;
80411;SDS011;69749;42.684;23.360;2023-04-30T07:11:56;20.45;;;12.52;;
80411;SDS011;69749;42.684;23.360;2023-04-30T07:14:22;19.55;;;11.48;;
80411;SDS011;69749;42.684;23.360;2023-04-30T07:16:51;18.10;;;11.20;;
80411;SDS011;69749;42.684;23.360;2023-04-30T07:19:17;20.13;;;11.75;;
80411;SDS011;69749;42.684;23.360;2023-04-30T07:21:42;19.08;;;11.52;;
80411;SDS011;69749;42.684;23.360;2023-04-30T07:24:08;18.38;;;10.82;;
80411;SDS011;69749;42.684;23.360;2023-04-30T07:26:33;15.63;;;10.05;;
80411;SDS011;69749;42.684;23.360;2023-04-30T07:28:59;14.52;;;10.15;;
80411;SDS011;69749;42.684;23.360;2023-04-30T07:31:25;23.40;;;12.00;;
80411;SDS011;69749;42.684;23.360;2023-04-30T07:33:51;22.63;;;10.27;;
80411;SDS011;69749;42.684;23.360;2023-04-30T07:36:16;16.00;;;9.65;;
80411;SDS011;69749;42.684;23.360;2023-04-30T07:38:41;18.63;;;10.73;;
80411;SDS011;69749;42.684;23.360;2023-04-30T07:41:07;18.42;;;9.68;;
80411;SDS011;69749;42.684;23.360;2023-04-30T07:43:33;21.05;;;10.82;;
80411;SDS011;69749;42.684;23.360;2023-04-30T07:46:00;15.20;;;10.05;;
80411;SDS011;69749;42.684;23.360;2023-04-30T07:48:26;16.25;;;10.13;;
80411;SDS011;69749;42.684;23.360;2023-04-30T07:50:51;18.42;;;9.88;;
80411;SDS011;69749;42.684;23.360;2023-04-30T07:53:17;14.27;;;9.15;;
80411;SDS011;69749;42.684;23.360;2023-04-30T07:55:42;14.73;;;8.10;;
80411;SDS011;69749;42.684;23.360;2023-04-30T07:58:08;14.50;;;7.40;;
80411;SDS011;69749;42.684;23.360;2023-04-30T08:00:33;13.63;;;8.40;;
80411;SDS011;69749;42.684;23.360;2023-04-30T08:02:58;15.27;;;8.10;;
80411;SDS011;69749;42.684;23.360;2023-04-30T08:05:24;13.40;;;7.68;;
80411;SDS011;69749;42.684;23.360;2023-04-30T08:07:51;13.02;;;7.82;;
80411;SDS011;69749;42.684;23.360;2023-04-30T08:10:16;13.00;;;7.15;;
80411;SDS011;69749;42.684;23.360;2023-04-30T08:12:42;9.57;;;6.15;;
80411;SDS011;69749;42.684;23.360;2023-04-30T08:15:10;9.40;;;6.05;;
80411;SDS011;69749;42.684;23.360;2023-04-30T08:17:36;12.07;;;6.22;;
80411;SDS011;69749;42.684;23.360;2023-04-30T08:20:04;8.68;;;5.53;;
80411;SDS011;69749;42.684;23.360;2023-04-30T08:22:30;9.85;;;4.63;;
80411;SDS011;69749;42.684;23.360;2023-04-30T08:24:56;9.25;;;4.53;;
80411;SDS011;69749;42.684;23.360;2023-04-30T08:27:22;8.27;;;5.20;;
80411;SDS011;69749;42.684;23.360;2023-04-30T08:29:47;6.43;;;4.78;;
80411;SDS011;69749;42.684;23.360;2023-04-30T08:32:13;9.95;;;5.25;;
80411;SDS011;69749;42.684;23.360;2023-04-30T08:34:38;5.93;;;4.22;;
80411;SDS011;69749;42.684;23.360;2023-04-30T08:37:07;12.30;;;4.82;;
80411;SDS011;69749;42.684;23.360;2023-04-30T08:39:33;9.63;;;5.10;;
80411;SDS011;69749;42.684;23.360;2023-04-30T08:42:00;10.38;;;4.95;;
80411;SDS011;69749;42.684;23.360;2023-04-30T08:44:27;8.77;;;5.13;;
80411;SDS011;69749;42.684;23.360;2023-04-30T08:46:54;6.40;;;4.68;;
80411;SDS011;69749;42.684;23.360;2023-04-30T08:49:22;6.28;;;4.55;;
80411;SDS011;69749;42.684;23.360;2023-04-30T08:51:48;11.20;;;4.80;;
80411;SDS011;69749;42.684;23.360;2023-04-30T08:54:15;9.65;;;5.38;;
80411;SDS011;69749;42.684;23.360;2023-04-30T08:56:42;9.00;;;4.70;;
80411;SDS011;69749;42.684;23.360;2023-04-30T08:59:08;11.50;;;4.78;;
80411;SDS011;69749;42.684;23.360;2023-04-30T09:01:34;9.10;;;4.45;;
80411;SDS011;69749;42.684;23.360;2023-04-30T09:04:01;6.78;;;4.55;;
80411;SDS011;69749;42.684;23.360;2023-04-30T09:06:28;8.20;;;4.70;;
80411;SDS011;69749;42.684;23.360;2023-04-30T09:08:54;8.00;;;4.93;;
80411;SDS011;69749;42.684;23.360;2023-04-30T09:13:52;6.07;;;4.35;;
80411;SDS011;69749;42.684;23.360;2023-04-30T09:16:20;6.07;;;4.45;;
80411;SDS011;69749;42.684;23.360;2023-04-30T09:18:46;7.72;;;4.63;;
80411;SDS011;69749;42.684;23.360;2023-04-30T09:21:12;9.30;;;4.82;;
80411;SDS011;69749;42.684;23.360;2023-04-30T09:23:54;6.15;;;4.45;;
80411;SDS011;69749;42.684;23.360;2023-04-30T09:28:55;9.90;;;4.07;;
80411;SDS011;69749;42.684;23.360;2023-04-30T09:31:23;8.60;;;4.43;;
80411;SDS011;69749;42.684;23.360;2023-04-30T09:33:55;4.82;;;3.90;;
80411;SDS011;69749;42.684;23.360;2023-04-30T09:36:24;6.90;;;4.70;;
80411;SDS011;69749;42.684;23.360;2023-04-30T09:38:49;4.40;;;3.78;;
80411;SDS011;69749;42.684;23.360;2023-04-30T09:43:47;6.40;;;4.70;;
80411;SDS011;69749;42.684;23.360;2023-04-30T09:46:13;4.85;;;4.20;;
80411;SDS011;69749;42.684;23.360;2023-04-30T09:48:42;7.22;;;4.80;;
80411;SDS011;69749;42.684;23.360;2023-04-30T09:51:09;5.75;;;4.20;;
80411;SDS011;69749;42.684;23.360;2023-04-30T09:53:37;8.98;;;5.65;;
80411;SDS011;69749;42.684;23.360;2023-04-30T09:56:05;4.40;;;4.00;;
80411;SDS011;69749;42.684;23.360;2023-04-30T09:58:32;9.00;;;4.97;;
80411;SDS011;69749;42.684;23.360;2023-04-30T10:01:01;6.72;;;4.00;;
80411;SDS011;69749;42.684;23.360;2023-04-30T10:03:32;5.88;;;4.28;;
80411;SDS011;69749;42.684;23.360;2023-04-30T10:05:58;6.47;;;4.32;;
80411;SDS011;69749;42.684;23.360;2023-04-30T10:08:30;4.53;;;4.10;;
80411;SDS011;69749;42.684;23.360;2023-04-30T10:10:58;3.90;;;3.60;;
80411;SDS011;69749;42.684;23.360;2023-04-30T10:13:40;3.90;;;3.50;;
80411;SDS011;69749;42.684;23.360;2023-04-30T10:16:14;4.47;;;3.60;;
80411;SDS011;69749;42.684;23.360;2023-04-30T10:19:04;4.03;;;3.63;;
80411;SDS011;69749;42.684;23.360;2023-04-30T10:21:33;3.63;;;3.33;;
80411;SDS011;69749;42.684;23.360;2023-04-30T10:23:59;4.55;;;3.85;;
80411;SDS011;69749;42.684;23.360;2023-04-30T10:26:25;9.20;;;6.60;;
80411;SDS011;69749;42.684;23.360;2023-04-30T10:28:54;10.65;;;6.38;;
80411;SDS011;69749;42.684;23.360;2023-04-30T10:31:23;17.33;;;11.18;;
80411;SDS011;69749;42.684;23.360;2023-04-30T10:36:32;9.88;;;6.68;;
80411;SDS011;69749;42.684;23.360;2023-04-30T10:39:18;10.48;;;5.75;;
80411;SDS011;69749;42.684;23.360;2023-04-30T10:41:46;4.20;;;3.22;;
80411;SDS011;69749;42.684;23.360;2023-04-30T10:44:12;7.93;;;5.07;;
80411;SDS011;69749;42.684;23.360;2023-04-30T10:46:39;8.30;;;4.35;;
80411;SDS011;69749;42.684;23.360;2023-04-30T10:49:05;14.48;;;8.43;;
80411;SDS011;69749;42.684;23.360;2023-04-30T10:51:43;19.38;;;12.88;;
80411;SDS011;69749;42.684;23.360;2023-04-30T10:54:10;11.77;;;8.65;;
80411;SDS011;69749;42.684;23.360;2023-04-30T10:56:39;11.43;;;9.13;;
80411;SDS011;69749;42.684;23.360;2023-04-30T10:59:04;5.43;;;4.30;;
80411;SDS011;69749;42.684;23.360;2023-04-30T11:01:30;7.47;;;6.43;;
80411;SDS011;69749;42.684;23.360;2023-04-30T11:04:10;5.90;;;4.38;;
80411;SDS011;69749;42.684;23.360;2023-04-30T11:09:16;8.80;;;4.60;;
80411;SDS011;69749;42.684;23.360;2023-04-30T11:11:45;7.70;;;5.78;;
80411;SDS011;69749;42.684;23.360;2023-04-30T11:14:19;7.85;;;6.57;;
80411;SDS011;69749;42.684;23.360;2023-04-30T11:16:47;8.05;;;6.43;;
80411;SDS011;69749;42.684;23.360;2023-04-30T11:19:13;6.45;;;3.92;;
80411;SDS011;69749;42.684;23.360;2023-04-30T11:22:21;4.90;;;3.83;;
80411;SDS011;69749;42.684;23.360;2023-04-30T11:27:25;8.73;;;6.05;;
80411;SDS011;69749;42.684;23.360;2023-04-30T11:29:52;5.88;;;3.67;;
80411;SDS011;69749;42.684;23.360;2023-04-30T11:32:19;7.43;;;4.95;;
80411;SDS011;69749;42.684;23.360;2023-04-30T11:34:46;5.47;;;3.63;;
80411;SDS011;69749;42.684;23.360;2023-04-30T11:37:14;3.97;;;3.28;;
80411;SDS011;69749;42.684;23.360;2023-04-30T11:39:43;5.47;;;4.15;;
80411;SDS011;69749;42.684;23.360;2023-04-30T11:42:14;9.98;;;4.95;;
80411;SDS011;69749;42.684;23.360;2023-04-30T11:44:41;4.10;;;3.70;;
80411;SDS011;69749;42.684;23.360;2023-04-30T11:47:07;5.07;;;4.00;;
80411;SDS011;69749;42.684;23.360;2023-04-30T11:49:32;7.90;;;4.90;;
80411;SDS011;69749;42.684;23.360;2023-04-30T11:51:58;5.90;;;4.28;;
80411;SDS011;69749;42.684;23.360;2023-04-30T11:54:23;4.85;;;3.53;;
80411;SDS011;69749;42.684;23.360;2023-04-30T11:56:49;8.05;;;4.78;;
80411;SDS011;69749;42.684;23.360;2023-04-30T11:59:14;8.90;;;5.63;;
80411;SDS011;69749;42.684;23.360;2023-04-30T12:01:41;4.97;;;4.00;;
80411;SDS011;69749;42.684;23.360;2023-04-30T12:04:07;4.20;;;3.75;;
80411;SDS011;69749;42.684;23.360;2023-04-30T12:06:33;4.80;;;3.67;;
80411;SDS011;69749;42.684;23.360;2023-04-30T12:09:00;7.93;;;4.80;;
80411;SDS011;69749;42.684;23.360;2023-04-30T12:11:29;5.78;;;4.68;;
80411;SDS011;69749;42.684;23.360;2023-04-30T12:19:15;5.95;;;4.05;;
80411;SDS011;69749;42.684;23.360;2023-04-30T12:21:42;4.65;;;3.45;;
80411;SDS011;69749;42.684;23.360;2023-04-30T12:24:10;5.97;;;4.25;;
80411;SDS011;69749;42.684;23.360;2023-04-30T12:26:37;4.70;;;3.38;;
80411;SDS011;69749;42.684;23.360;2023-04-30T12:31:33;4.68;;;3.50;;
80411;SDS011;69749;42.684;23.360;2023-04-30T12:34:05;4.65;;;3.58;;
80411;SDS011;69749;42.684;23.360;2023-04-30T12:36:32;3.42;;;3.13;;
80411;SDS011;69749;42.684;23.360;2023-04-30T12:39:02;5.03;;;3.60;;
80411;SDS011;69749;42.684;23.360;2023-04-30T12:41:34;3.60;;;3.30;;
80411;SDS011;69749;42.684;23.360;2023-04-30T12:44:19;4.38;;;3.53;;
80411;SDS011;69749;42.684;23.360;2023-04-30T12:46:46;4.75;;;3.50;;
80411;SDS011;69749;42.684;23.360;2023-04-30T12:49:20;4.22;;;3.83;;
80411;SDS011;69749;42.684;23.360;2023-04-30T12:54:36;6.20;;;3.30;;
80411;SDS011;69749;42.684;23.360;2023-04-30T12:57:06;6.65;;;4.75;;
80411;SDS011;69749;42.684;23.360;2023-04-30T12:59:51;3.30;;;3.00;;
80411;SDS011;69749;42.684;23.360;2023-04-30T13:02:23;3.72;;;3.10;;
80411;SDS011;69749;42.684;23.360;2023-04-30T13:04:49;4.88;;;2.75;;
80411;SDS011;69749;42.684;23.360;2023-04-30T13:07:15;3.97;;;2.83;;
80411;SDS011;69749;42.684;23.360;2023-04-30T13:09:41;3.55;;;3.25;;
80411;SDS011;69749;42.684;23.360;2023-04-30T13:12:06;3.55;;;2.90;;
80411;SDS011;69749;42.684;23.360;2023-04-30T13:14:32;6.10;;;3.30;;
80411;SDS011;69749;42.684;23.360;2023-04-30T13:16:58;4.43;;;3.50;;
80411;SDS011;69749;42.684;23.360;2023-04-30T13:19:24;5.45;;;3.25;;
80411;SDS011;69749;42.684;23.360;2023-04-30T13:21:50;3.97;;;3.55;;
80411;SDS011;69749;42.684;23.360;2023-04-30T13:24:15;6.25;;;3.28;;
80411;SDS011;69749;42.684;23.360;2023-04-30T13:26:41;6.18;;;4.35;;
80411;SDS011;69749;42.684;23.360;2023-04-30T13:29:07;4.32;;;3.70;;
80411;SDS011;69749;42.684;23.360;2023-04-30T13:31:33;4.60;;;3.80;;
80411;SDS011;69749;42.684;23.360;2023-04-30T13:33:58;4.95;;;3.72;;
80411;SDS011;69749;42.684;23.360;2023-04-30T13:36:24;4.60;;;3.45;;
80411;SDS011;69749;42.684;23.360;2023-04-30T13:38:49;6.68;;;4.75;;
80411;SDS011;69749;42.684;23.360;2023-04-30T13:41:15;4.10;;;3.55;;
80411;SDS011;69749;42.684;23.360;2023-04-30T13:43:40;4.57;;;3.40;;
80411;SDS011;69749;42.684;23.360;2023-04-30T13:46:09;3.97;;;3.20;;
80411;SDS011;69749;42.684;23.360;2023-04-30T13:48:35;7.55;;;4.47;;
80411;SDS011;69749;42.684;23.360;2023-04-30T13:51:00;8.52;;;4.88;;
80411;SDS011;69749;42.684;23.360;2023-04-30T13:53:26;13.63;;;8.07;;
80411;SDS011;69749;42.684;23.360;2023-04-30T13:55:51;9.60;;;5.72;;
80411;SDS011;69749;42.684;23.360;2023-04-30T13:58:20;11.48;;;6.57;;
80411;SDS011;69749;42.684;23.360;2023-04-30T14:00:46;18.67;;;13.52;;
80411;SDS011;69749;42.684;23.360;2023-04-30T14:03:11;8.48;;;5.78;;
80411;SDS011;69749;42.684;23.360;2023-04-30T14:05:38;3.55;;;3.22;;
80411;SDS011;69749;42.684;23.360;2023-04-30T14:08:03;5.15;;;2.80;;
80411;SDS011;69749;42.684;23.360;2023-04-30T14:10:29;7.45;;;3.33;;
80411;SDS011;69749;42.684;23.360;2023-04-30T14:12:55;3.13;;;2.80;;
80411;SDS011;69749;42.684;23.360;2023-04-30T14:15:20;5.00;;;3.10;;
80411;SDS011;69749;42.684;23.360;2023-04-30T14:17:46;5.15;;;4.00;;
80411;SDS011;69749;42.684;23.360;2023-04-30T14:20:12;10.85;;;7.63;;
80411;SDS011;69749;42.684;23.360;2023-04-30T14:22:38;5.78;;;4.18;;
80411;SDS011;69749;42.684;23.360;2023-04-30T14:25:04;4.90;;;3.35;;
80411;SDS011;69749;42.684;23.360;2023-04-30T14:27:30;3.30;;;2.97;;
80411;SDS011;69749;42.684;23.360;2023-04-30T14:29:55;5.05;;;3.03;;
80411;SDS011;69749;42.684;23.360;2023-04-30T14:32:23;6.40;;;4.30;;
80411;SDS011;69749;42.684;23.360;2023-04-30T14:34:49;3.88;;;3.05;;
80411;SDS011;69749;42.684;23.360;2023-04-30T14:37:15;3.80;;;2.88;;
80411;SDS011;69749;42.684;23.360;2023-04-30T14:39:40;5.15;;;3.20;;
80411;SDS011;69749;42.684;23.360;2023-04-30T14:42:07;3.72;;;3.33;;
80411;SDS011;69749;42.684;23.360;2023-04-30T14:44:33;7.95;;;5.07;;
80411;SDS011;69749;42.684;23.360;2023-04-30T14:46:58;3.75;;;3.00;;
80411;SDS011;69749;42.684;23.360;2023-04-30T14:49:24;5.47;;;4.22;;
80411;SDS011;69749;42.684;23.360;2023-04-30T14:51:50;2.67;;;2.47;;
80411;SDS011;69749;42.684;23.360;2023-04-30T14:54:16;3.53;;;3.15;;
80411;SDS011;69749;42.684;23.360;2023-04-30T14:56:43;3.55;;;2.88;;
80411;SDS011;69749;42.684;23.360;2023-04-30T14:59:09;4.53;;;3.45;;
80411;SDS011;69749;42.684;23.360;2023-04-30T15:01:36;3.50;;;2.72;;
80411;SDS011;69749;42.684;23.360;2023-04-30T15:04:02;4.03;;;2.83;;
80411;SDS011;69749;42.684;23.360;2023-04-30T15:06:27;4.93;;;3.13;;